sensor_id;sensor_type;location;lat;lon;timestamp;P1;durP1;ratioP1;P2;durP2;ratioP2
78716;SDS011;68045;50.042;14.432;2023-08-21T00:00:16;15.88;;;13.40;;
78716;SDS011;68045;50.042;14.432;2023-08-21T00:04:37;14.52;;;12.27;;
78716;SDS011;68045;50.042;14.432;2023-08-21T00:08:37;15.32;;;13.27;;
78716;SDS011;68045;50.042;14.432;2023-08-21T00:12:38;14.40;;;12.48;;
78716;SDS011;68045;50.042;14.432;2023-08-21T00:16:39;17.15;;;13.68;;
78716;SDS011;68045;50.042;14.432;2023-08-21T00:20:40;16.35;;;12.98;;
78716;SDS011;68045;50.042;14.432;2023-08-21T00:28:43;14.52;;;12.35;;
78716;SDS011;68045;50.042;14.432;2023-08-21T00:32:44;16.90;;;13.48;;
78716;SDS011;68045;50.042;14.432;2023-08-21T00:36:45;15.07;;;12.88;;
78716;SDS011;68045;50.042;14.432;2023-08-21T00:40:46;21.10;;;13.77;;
78716;SDS011;68045;50.042;14.432;2023-08-21T00:44:47;19.38;;;14.00;;
78716;SDS011;68045;50.042;14.432;2023-08-21T00:48:48;15.68;;;12.50;;
78716;SDS011;68045;50.042;14.432;2023-08-21T00:52:49;17.00;;;12.23;;
78716;SDS011;68045;50.042;14.432;2023-08-21T00:56:50;15.52;;;13.15;;
78716;SDS011;68045;50.042;14.432;2023-08-21T01:05:31;16.23;;;13.63;;
78716;SDS011;68045;50.042;14.432;2023-08-21T01:18:17;17.10;;;12.35;;
78716;SDS011;68045;50.042;14.432;2023-08-21T01:22:19;16.88;;;12.32;;
78716;SDS011;68045;50.042;14.432;2023-08-21T01:26:20;15.27;;;11.30;;
78716;SDS011;68045;50.042;14.432;2023-08-21T01:30:21;14.82;;;11.18;;
78716;SDS011;68045;50.042;14.432;2023-08-21T01:38:24;13.25;;;10.98;;
78716;SDS011;68045;50.042;14.432;2023-08-21T01:42:25;15.32;;;12.25;;
78716;SDS011;68045;50.042;14.432;2023-08-21T01:46:27;16.65;;;11.07;;
78716;SDS011;68045;50.042;14.432;2023-08-21T01:50:27;14.75;;;11.27;;
78716;SDS011;68045;50.042;14.432;2023-08-21T01:54:29;16.05;;;10.70;;
78716;SDS011;68045;50.042;14.432;2023-08-21T01:58:32;15.85;;;11.95;;
78716;SDS011;68045;50.042;14.432;2023-08-21T02:02:32;13.90;;;11.75;;
78716;SDS011;68045;50.042;14.432;2023-08-21T02:06:33;16.63;;;12.25;;
78716;SDS011;68045;50.042;14.432;2023-08-21T02:10:34;17.40;;;12.38;;
78716;SDS011;68045;50.042;14.432;2023-08-21T02:14:35;16.85;;;12.15;;
78716;SDS011;68045;50.042;14.432;2023-08-21T02:18:36;14.90;;;12.95;;
78716;SDS011;68045;50.042;14.432;2023-08-21T02:22:37;17.27;;;12.18;;
78716;SDS011;68045;50.042;14.432;2023-08-21T02:26:37;19.65;;;11.98;;
78716;SDS011;68045;50.042;14.432;2023-08-21T02:30:41;15.38;;;12.27;;
78716;SDS011;68045;50.042;14.432;2023-08-21T02:34:42;16.38;;;13.02;;
78716;SDS011;68045;50.042;14.432;2023-08-21T02:38:43;15.82;;;12.75;;
78716;SDS011;68045;50.042;14.432;2023-08-21T02:42:44;16.73;;;11.80;;
78716;SDS011;68045;50.042;14.432;2023-08-21T02:46:44;15.45;;;12.25;;
78716;SDS011;68045;50.042;14.432;2023-08-21T02:50:45;16.60;;;12.45;;
78716;SDS011;68045;50.042;14.432;2023-08-21T02:54:46;16.35;;;12.90;;
78716;SDS011;68045;50.042;14.432;2023-08-21T02:58:47;17.70;;;12.02;;
78716;SDS011;68045;50.042;14.432;2023-08-21T03:02:48;14.50;;;12.07;;
78716;SDS011;68045;50.042;14.432;2023-08-21T03:06:49;17.55;;;12.48;;
78716;SDS011;68045;50.042;14.432;2023-08-21T03:10:50;16.88;;;12.57;;
78716;SDS011;68045;50.042;14.432;2023-08-21T03:14:52;20.35;;;13.60;;
78716;SDS011;68045;50.042;14.432;2023-08-21T03:18:54;22.05;;;13.70;;
78716;SDS011;68045;50.042;14.432;2023-08-21T03:22:57;15.45;;;11.52;;
78716;SDS011;68045;50.042;14.432;2023-08-21T03:26:58;17.00;;;12.52;;
78716;SDS011;68045;50.042;14.432;2023-08-21T03:30:59;19.45;;;13.10;;
78716;SDS011;68045;50.042;14.432;2023-08-21T03:35:01;18.02;;;12.60;;
78716;SDS011;68045;50.042;14.432;2023-08-21T03:39:02;18.17;;;12.48;;
78716;SDS011;68045;50.042;14.432;2023-08-21T03:43:10;15.85;;;11.77;;
78716;SDS011;68045;50.042;14.432;2023-08-21T03:47:10;21.05;;;13.45;;
78716;SDS011;68045;50.042;14.432;2023-08-21T03:51:22;16.45;;;12.55;;
78716;SDS011;68045;50.042;14.432;2023-08-21T03:55:24;17.70;;;13.27;;
78716;SDS011;68045;50.042;14.432;2023-08-21T03:59:25;18.52;;;12.10;;
78716;SDS011;68045;50.042;14.432;2023-08-21T04:03:27;16.40;;;12.38;;
78716;SDS011;68045;50.042;14.432;2023-08-21T04:07:29;15.20;;;11.93;;
78716;SDS011;68045;50.042;14.432;2023-08-21T04:11:30;17.55;;;13.15;;
78716;SDS011;68045;50.042;14.432;2023-08-21T04:15:31;24.15;;;12.85;;
78716;SDS011;68045;50.042;14.432;2023-08-21T04:19:33;19.30;;;12.75;;
78716;SDS011;68045;50.042;14.432;2023-08-21T04:23:36;19.67;;;14.55;;
78716;SDS011;68045;50.042;14.432;2023-08-21T04:27:36;15.00;;;11.75;;
78716;SDS011;68045;50.042;14.432;2023-08-21T04:31:38;14.93;;;12.30;;
78716;SDS011;68045;50.042;14.432;2023-08-21T04:35:39;20.10;;;13.13;;
78716;SDS011;68045;50.042;14.432;2023-08-21T04:39:40;19.25;;;13.95;;
78716;SDS011;68045;50.042;14.432;2023-08-21T04:43:42;16.73;;;13.13;;
78716;SDS011;68045;50.042;14.432;2023-08-21T04:47:44;21.73;;;13.43;;
78716;SDS011;68045;50.042;14.432;2023-08-21T04:51:45;18.13;;;14.00;;
78716;SDS011;68045;50.042;14.432;2023-08-21T04:55:46;18.05;;;13.27;;
78716;SDS011;68045;50.042;14.432;2023-08-21T04:59:47;16.73;;;13.00;;
78716;SDS011;68045;50.042;14.432;2023-08-21T05:03:48;19.10;;;14.60;;
78716;SDS011;68045;50.042;14.432;2023-08-21T05:07:53;18.40;;;13.88;;
78716;SDS011;68045;50.042;14.432;2023-08-21T05:11:54;17.02;;;14.10;;
78716;SDS011;68045;50.042;14.432;2023-08-21T05:15:56;23.63;;;13.82;;
78716;SDS011;68045;50.042;14.432;2023-08-21T05:20:00;17.85;;;13.25;;
78716;SDS011;68045;50.042;14.432;2023-08-21T05:24:01;21.58;;;14.45;;
78716;SDS011;68045;50.042;14.432;2023-08-21T05:28:04;16.92;;;13.88;;
78716;SDS011;68045;50.042;14.432;2023-08-21T05:32:06;19.13;;;14.93;;
78716;SDS011;68045;50.042;14.432;2023-08-21T05:36:06;17.00;;;14.18;;
78716;SDS011;68045;50.042;14.432;2023-08-21T05:40:08;24.20;;;15.77;;
78716;SDS011;68045;50.042;14.432;2023-08-21T05:44:09;24.13;;;13.93;;
78716;SDS011;68045;50.042;14.432;2023-08-21T05:48:10;20.23;;;13.32;;
78716;SDS011;68045;50.042;14.432;2023-08-21T05:52:11;18.08;;;13.82;;
78716;SDS011;68045;50.042;14.432;2023-08-21T05:56:12;19.85;;;14.02;;
78716;SDS011;68045;50.042;14.432;2023-08-21T06:00:13;14.73;;;13.10;;
78716;SDS011;68045;50.042;14.432;2023-08-21T06:04:17;22.90;;;11.75;;
78716;SDS011;68045;50.042;14.432;2023-08-21T06:08:33;15.68;;;10.90;;
78716;SDS011;68045;50.042;14.432;2023-08-21T06:12:34;16.73;;;11.95;;
78716;SDS011;68045;50.042;14.432;2023-08-21T06:16:35;14.85;;;12.07;;
78716;SDS011;68045;50.042;14.432;2023-08-21T06:20:35;19.02;;;12.73;;
78716;SDS011;68045;50.042;14.432;2023-08-21T06:24:36;16.08;;;13.00;;
78716;SDS011;68045;50.042;14.432;2023-08-21T06:28:39;19.38;;;13.73;;
78716;SDS011;68045;50.042;14.432;2023-08-21T06:32:40;14.10;;;11.88;;
78716;SDS011;68045;50.042;14.432;2023-08-21T06:36:41;18.85;;;12.68;;
78716;SDS011;68045;50.042;14.432;2023-08-21T06:40:44;17.23;;;11.85;;
78716;SDS011;68045;50.042;14.432;2023-08-21T06:44:46;15.73;;;11.48;;
78716;SDS011;68045;50.042;14.432;2023-08-21T06:48:47;18.23;;;12.32;;
78716;SDS011;68045;50.042;14.432;2023-08-21T06:52:48;15.57;;;11.98;;
78716;SDS011;68045;50.042;14.432;2023-08-21T06:56:49;17.70;;;12.52;;
78716;SDS011;68045;50.042;14.432;2023-08-21T07:00:49;16.08;;;12.35;;
78716;SDS011;68045;50.042;14.432;2023-08-21T07:04:50;17.50;;;11.95;;
78716;SDS011;68045;50.042;14.432;2023-08-21T07:08:51;19.35;;;12.60;;
78716;SDS011;68045;50.042;14.432;2023-08-21T07:12:52;14.18;;;12.35;;
78716;SDS011;68045;50.042;14.432;2023-08-21T07:16:53;19.17;;;12.50;;
78716;SDS011;68045;50.042;14.432;2023-08-21T07:20:54;15.50;;;12.38;;
78716;SDS011;68045;50.042;14.432;2023-08-21T07:24:55;14.18;;;11.50;;
78716;SDS011;68045;50.042;14.432;2023-08-21T07:28:57;13.98;;;12.30;;
78716;SDS011;68045;50.042;14.432;2023-08-21T07:32:58;13.77;;;11.70;;
78716;SDS011;68045;50.042;14.432;2023-08-21T07:36:59;14.68;;;10.65;;
78716;SDS011;68045;50.042;14.432;2023-08-21T07:41:07;16.80;;;11.80;;
78716;SDS011;68045;50.042;14.432;2023-08-21T07:45:10;13.18;;;11.07;;
78716;SDS011;68045;50.042;14.432;2023-08-21T07:49:11;15.80;;;12.35;;
78716;SDS011;68045;50.042;14.432;2023-08-21T07:53:12;15.60;;;12.32;;
78716;SDS011;68045;50.042;14.432;2023-08-21T07:57:13;13.80;;;11.70;;
78716;SDS011;68045;50.042;14.432;2023-08-21T08:01:14;18.92;;;12.88;;
78716;SDS011;68045;50.042;14.432;2023-08-21T08:05:15;15.65;;;12.23;;
78716;SDS011;68045;50.042;14.432;2023-08-21T08:09:17;16.88;;;11.88;;
78716;SDS011;68045;50.042;14.432;2023-08-21T08:13:19;14.85;;;12.05;;
78716;SDS011;68045;50.042;14.432;2023-08-21T08:17:20;12.63;;;11.13;;
78716;SDS011;68045;50.042;14.432;2023-08-21T08:21:20;17.10;;;12.45;;
78716;SDS011;68045;50.042;14.432;2023-08-21T08:25:21;16.88;;;11.35;;
78716;SDS011;68045;50.042;14.432;2023-08-21T08:29:22;15.88;;;12.75;;
78716;SDS011;68045;50.042;14.432;2023-08-21T08:33:24;14.73;;;11.60;;
78716;SDS011;68045;50.042;14.432;2023-08-21T08:37:26;15.63;;;12.43;;
78716;SDS011;68045;50.042;14.432;2023-08-21T08:46:03;19.45;;;13.43;;
78716;SDS011;68045;50.042;14.432;2023-08-21T08:50:06;14.20;;;12.70;;
78716;SDS011;68045;50.042;14.432;2023-08-21T08:54:08;13.25;;;11.73;;
78716;SDS011;68045;50.042;14.432;2023-08-21T08:58:11;14.32;;;11.13;;
78716;SDS011;68045;50.042;14.432;2023-08-21T09:02:11;14.27;;;11.75;;
78716;SDS011;68045;50.042;14.432;2023-08-21T09:06:12;14.23;;;12.15;;
78716;SDS011;68045;50.042;14.432;2023-08-21T09:10:14;16.92;;;12.10;;
78716;SDS011;68045;50.042;14.432;2023-08-21T09:14:25;14.40;;;11.77;;
78716;SDS011;68045;50.042;14.432;2023-08-21T09:18:26;17.92;;;11.80;;
78716;SDS011;68045;50.042;14.432;2023-08-21T09:22:27;13.73;;;12.15;;
78716;SDS011;68045;50.042;14.432;2023-08-21T09:26:30;15.05;;;12.30;;
78716;SDS011;68045;50.042;14.432;2023-08-21T09:30:46;15.77;;;12.32;;
78716;SDS011;68045;50.042;14.432;2023-08-21T09:34:46;15.02;;;11.55;;
78716;SDS011;68045;50.042;14.432;2023-08-21T09:38:47;17.30;;;13.07;;
78716;SDS011;68045;50.042;14.432;2023-08-21T09:42:52;14.50;;;11.98;;
78716;SDS011;68045;50.042;14.432;2023-08-21T09:46:59;15.77;;;11.30;;
78716;SDS011;68045;50.042;14.432;2023-08-21T09:51:00;16.30;;;11.60;;
78716;SDS011;68045;50.042;14.432;2023-08-21T09:55:05;13.43;;;12.05;;
78716;SDS011;68045;50.042;14.432;2023-08-21T10:03:07;15.32;;;12.18;;
78716;SDS011;68045;50.042;14.432;2023-08-21T10:07:10;14.88;;;13.27;;
78716;SDS011;68045;50.042;14.432;2023-08-21T10:11:13;13.35;;;11.52;;
78716;SDS011;68045;50.042;14.432;2023-08-21T10:15:15;13.65;;;12.35;;
78716;SDS011;68045;50.042;14.432;2023-08-21T10:19:16;14.82;;;12.32;;
78716;SDS011;68045;50.042;14.432;2023-08-21T10:23:39;13.57;;;12.05;;
78716;SDS011;68045;50.042;14.432;2023-08-21T10:27:40;13.27;;;12.00;;
78716;SDS011;68045;50.042;14.432;2023-08-21T10:31:41;13.13;;;11.82;;
78716;SDS011;68045;50.042;14.432;2023-08-21T10:35:44;13.27;;;11.98;;
78716;SDS011;68045;50.042;14.432;2023-08-21T10:39:54;13.15;;;11.85;;
78716;SDS011;68045;50.042;14.432;2023-08-21T10:43:57;12.50;;;11.32;;
78716;SDS011;68045;50.042;14.432;2023-08-21T10:47:58;12.40;;;10.90;;
78716;SDS011;68045;50.042;14.432;2023-08-21T10:51:59;12.18;;;10.98;;
78716;SDS011;68045;50.042;14.432;2023-08-21T10:56:00;13.88;;;12.45;;
78716;SDS011;68045;50.042;14.432;2023-08-21T11:00:04;11.85;;;10.75;;
78716;SDS011;68045;50.042;14.432;2023-08-21T11:04:10;13.48;;;12.07;;
78716;SDS011;68045;50.042;14.432;2023-08-21T11:08:12;12.80;;;11.32;;
78716;SDS011;68045;50.042;14.432;2023-08-21T11:12:17;12.70;;;11.50;;
78716;SDS011;68045;50.042;14.432;2023-08-21T11:16:20;12.85;;;11.55;;
78716;SDS011;68045;50.042;14.432;2023-08-21T11:20:21;14.82;;;10.88;;
78716;SDS011;68045;50.042;14.432;2023-08-21T11:24:21;13.25;;;11.95;;
78716;SDS011;68045;50.042;14.432;2023-08-21T11:28:22;12.52;;;11.30;;
78716;SDS011;68045;50.042;14.432;2023-08-21T11:32:23;12.27;;;11.13;;
78716;SDS011;68045;50.042;14.432;2023-08-21T11:36:24;12.23;;;10.95;;
78716;SDS011;68045;50.042;14.432;2023-08-21T11:40:25;12.73;;;10.98;;
78716;SDS011;68045;50.042;14.432;2023-08-21T11:48:27;11.90;;;10.27;;
78716;SDS011;68045;50.042;14.432;2023-08-21T11:52:29;12.20;;;11.07;;
78716;SDS011;68045;50.042;14.432;2023-08-21T11:56:32;13.05;;;11.07;;
78716;SDS011;68045;50.042;14.432;2023-08-21T12:00:32;13.07;;;11.00;;
78716;SDS011;68045;50.042;14.432;2023-08-21T12:04:34;13.73;;;12.13;;
78716;SDS011;68045;50.042;14.432;2023-08-21T12:08:35;12.50;;;11.40;;
78716;SDS011;68045;50.042;14.432;2023-08-21T12:12:37;13.55;;;11.90;;
78716;SDS011;68045;50.042;14.432;2023-08-21T12:16:37;13.27;;;10.98;;
78716;SDS011;68045;50.042;14.432;2023-08-21T12:20:38;12.52;;;10.95;;
78716;SDS011;68045;50.042;14.432;2023-08-21T12:24:39;16.20;;;11.05;;
78716;SDS011;68045;50.042;14.432;2023-08-21T12:28:40;13.25;;;11.13;;
78716;SDS011;68045;50.042;14.432;2023-08-21T12:32:41;12.57;;;11.25;;
78716;SDS011;68045;50.042;14.432;2023-08-21T12:36:42;11.32;;;10.23;;
78716;SDS011;68045;50.042;14.432;2023-08-21T12:40:42;11.48;;;9.90;;
78716;SDS011;68045;50.042;14.432;2023-08-21T12:44:43;10.60;;;9.52;;
78716;SDS011;68045;50.042;14.432;2023-08-21T12:48:44;10.02;;;9.02;;
78716;SDS011;68045;50.042;14.432;2023-08-21T12:52:45;11.75;;;9.80;;
78716;SDS011;68045;50.042;14.432;2023-08-21T12:56:46;15.57;;;9.07;;
78716;SDS011;68045;50.042;14.432;2023-08-21T13:00:47;11.82;;;9.10;;
78716;SDS011;68045;50.042;14.432;2023-08-21T13:04:48;9.63;;;8.70;;
78716;SDS011;68045;50.042;14.432;2023-08-21T13:08:49;10.30;;;9.30;;
78716;SDS011;68045;50.042;14.432;2023-08-21T13:16:52;9.82;;;8.82;;
78716;SDS011;68045;50.042;14.432;2023-08-21T13:24:53;10.55;;;8.73;;
78716;SDS011;68045;50.042;14.432;2023-08-21T13:28:54;10.25;;;9.25;;
78716;SDS011;68045;50.042;14.432;2023-08-21T13:36:56;9.98;;;8.98;;
78716;SDS011;68045;50.042;14.432;2023-08-21T13:44:58;11.52;;;9.13;;
78716;SDS011;68045;50.042;14.432;2023-08-21T13:52:59;12.20;;;9.23;;
78716;SDS011;68045;50.042;14.432;2023-08-21T14:01:02;11.07;;;9.07;;
78716;SDS011;68045;50.042;14.432;2023-08-21T14:05:03;11.00;;;9.02;;
78716;SDS011;68045;50.042;14.432;2023-08-21T14:09:04;12.35;;;9.85;;
78716;SDS011;68045;50.042;14.432;2023-08-21T14:13:06;12.68;;;9.52;;
78716;SDS011;68045;50.042;14.432;2023-08-21T14:17:08;11.52;;;9.13;;
78716;SDS011;68045;50.042;14.432;2023-08-21T14:21:09;10.70;;;8.00;;
78716;SDS011;68045;50.042;14.432;2023-08-21T14:25:10;12.57;;;8.10;;
78716;SDS011;68045;50.042;14.432;2023-08-21T14:29:11;12.75;;;8.60;;
78716;SDS011;68045;50.042;14.432;2023-08-21T14:33:12;10.90;;;8.85;;
78716;SDS011;68045;50.042;14.432;2023-08-21T14:37:13;9.00;;;7.40;;
78716;SDS011;68045;50.042;14.432;2023-08-21T14:41:16;12.02;;;9.13;;
78716;SDS011;68045;50.042;14.432;2023-08-21T14:45:17;10.30;;;8.27;;
78716;SDS011;68045;50.042;14.432;2023-08-21T14:49:18;10.02;;;9.02;;
78716;SDS011;68045;50.042;14.432;2023-08-21T14:53:18;9.77;;;8.63;;
78716;SDS011;68045;50.042;14.432;2023-08-21T14:57:19;12.07;;;8.80;;
78716;SDS011;68045;50.042;14.432;2023-08-21T15:01:20;10.48;;;8.43;;
78716;SDS011;68045;50.042;14.432;2023-08-21T15:05:21;12.13;;;9.38;;
78716;SDS011;68045;50.042;14.432;2023-08-21T15:09:22;11.50;;;8.65;;
78716;SDS011;68045;50.042;14.432;2023-08-21T15:13:23;9.93;;;8.45;;
78716;SDS011;68045;50.042;14.432;2023-08-21T15:17:24;18.00;;;9.02;;
78716;SDS011;68045;50.042;14.432;2023-08-21T15:21:24;9.82;;;8.38;;
78716;SDS011;68045;50.042;14.432;2023-08-21T15:25:27;10.32;;;8.77;;
78716;SDS011;68045;50.042;14.432;2023-08-21T15:33:29;9.27;;;7.68;;
78716;SDS011;68045;50.042;14.432;2023-08-21T15:37:30;10.02;;;8.75;;
78716;SDS011;68045;50.042;14.432;2023-08-21T15:41:32;16.13;;;7.65;;
78716;SDS011;68045;50.042;14.432;2023-08-21T15:45:33;14.07;;;8.65;;
78716;SDS011;68045;50.042;14.432;2023-08-21T15:49:34;11.05;;;9.05;;
78716;SDS011;68045;50.042;14.432;2023-08-21T15:53:34;11.73;;;8.55;;
78716;SDS011;68045;50.042;14.432;2023-08-21T15:57:35;12.98;;;8.60;;
78716;SDS011;68045;50.042;14.432;2023-08-21T16:01:37;9.48;;;8.55;;
78716;SDS011;68045;50.042;14.432;2023-08-21T16:05:39;11.93;;;8.85;;
78716;SDS011;68045;50.042;14.432;2023-08-21T16:09:40;10.15;;;9.15;;
78716;SDS011;68045;50.042;14.432;2023-08-21T16:13:41;10.55;;;8.07;;
78716;SDS011;68045;50.042;14.432;2023-08-21T16:17:42;10.15;;;8.52;;
78716;SDS011;68045;50.042;14.432;2023-08-21T16:21:43;12.20;;;9.07;;
78716;SDS011;68045;50.042;14.432;2023-08-21T16:25:45;8.98;;;7.53;;
78716;SDS011;68045;50.042;14.432;2023-08-21T16:29:46;11.63;;;9.27;;
78716;SDS011;68045;50.042;14.432;2023-08-21T16:33:46;11.65;;;8.80;;
78716;SDS011;68045;50.042;14.432;2023-08-21T16:37:47;8.98;;;7.97;;
78716;SDS011;68045;50.042;14.432;2023-08-21T16:41:48;9.70;;;7.80;;
78716;SDS011;68045;50.042;14.432;2023-08-21T16:45:49;14.50;;;7.97;;
78716;SDS011;68045;50.042;14.432;2023-08-21T16:49:50;9.85;;;8.25;;
78716;SDS011;68045;50.042;14.432;2023-08-21T16:53:51;11.57;;;7.75;;
78716;SDS011;68045;50.042;14.432;2023-08-21T16:57:52;9.15;;;7.30;;
78716;SDS011;68045;50.042;14.432;2023-08-21T17:01:52;10.75;;;7.18;;
78716;SDS011;68045;50.042;14.432;2023-08-21T17:05:53;8.57;;;7.15;;
78716;SDS011;68045;50.042;14.432;2023-08-21T17:09:54;8.75;;;6.22;;
78716;SDS011;68045;50.042;14.432;2023-08-21T17:13:55;7.68;;;6.00;;
78716;SDS011;68045;50.042;14.432;2023-08-21T17:17:56;8.77;;;6.43;;
78716;SDS011;68045;50.042;14.432;2023-08-21T17:21:58;9.68;;;6.65;;
78716;SDS011;68045;50.042;14.432;2023-08-21T17:25:59;9.63;;;6.60;;
78716;SDS011;68045;50.042;14.432;2023-08-21T17:30:00;8.60;;;6.15;;
78716;SDS011;68045;50.042;14.432;2023-08-21T17:34:01;8.60;;;6.63;;
78716;SDS011;68045;50.042;14.432;2023-08-21T17:38:02;7.82;;;5.90;;
78716;SDS011;68045;50.042;14.432;2023-08-21T17:42:04;8.13;;;5.38;;
78716;SDS011;68045;50.042;14.432;2023-08-21T17:46:07;10.10;;;5.38;;
78716;SDS011;68045;50.042;14.432;2023-08-21T17:50:08;10.48;;;6.45;;
78716;SDS011;68045;50.042;14.432;2023-08-21T17:54:09;9.98;;;6.22;;
78716;SDS011;68045;50.042;14.432;2023-08-21T17:58:10;8.88;;;6.03;;
78716;SDS011;68045;50.042;14.432;2023-08-21T18:02:11;11.02;;;5.80;;
78716;SDS011;68045;50.042;14.432;2023-08-21T18:06:12;7.07;;;5.20;;
78716;SDS011;68045;50.042;14.432;2023-08-21T18:10:13;7.10;;;4.85;;
78716;SDS011;68045;50.042;14.432;2023-08-21T18:14:15;8.27;;;4.90;;
78716;SDS011;68045;50.042;14.432;2023-08-21T18:18:16;7.63;;;5.68;;
78716;SDS011;68045;50.042;14.432;2023-08-21T18:22:17;7.57;;;5.65;;
78716;SDS011;68045;50.042;14.432;2023-08-21T18:26:18;12.07;;;5.72;;
78716;SDS011;68045;50.042;14.432;2023-08-21T18:30:19;6.75;;;5.70;;
78716;SDS011;68045;50.042;14.432;2023-08-21T18:34:19;10.10;;;5.80;;
78716;SDS011;68045;50.042;14.432;2023-08-21T18:38:20;9.70;;;5.82;;
78716;SDS011;68045;50.042;14.432;2023-08-21T18:42:21;8.98;;;5.60;;
78716;SDS011;68045;50.042;14.432;2023-08-21T18:46:22;10.48;;;5.78;;
78716;SDS011;68045;50.042;14.432;2023-08-21T18:50:33;7.78;;;5.47;;
78716;SDS011;68045;50.042;14.432;2023-08-21T18:54:35;8.52;;;5.07;;
78716;SDS011;68045;50.042;14.432;2023-08-21T18:58:36;6.22;;;5.00;;
78716;SDS011;68045;50.042;14.432;2023-08-21T19:02:40;10.10;;;5.88;;
78716;SDS011;68045;50.042;14.432;2023-08-21T19:06:41;9.88;;;5.57;;
78716;SDS011;68045;50.042;14.432;2023-08-21T19:10:42;9.38;;;5.65;;
78716;SDS011;68045;50.042;14.432;2023-08-21T19:14:43;7.10;;;5.63;;
78716;SDS011;68045;50.042;14.432;2023-08-21T19:18:44;14.38;;;6.40;;
78716;SDS011;68045;50.042;14.432;2023-08-21T19:22:44;7.90;;;6.22;;
78716;SDS011;68045;50.042;14.432;2023-08-21T19:26:46;9.23;;;6.20;;
78716;SDS011;68045;50.042;14.432;2023-08-21T19:30:47;9.70;;;5.38;;
78716;SDS011;68045;50.042;14.432;2023-08-21T19:34:49;9.45;;;5.75;;
78716;SDS011;68045;50.042;14.432;2023-08-21T19:38:50;8.10;;;6.05;;
78716;SDS011;68045;50.042;14.432;2023-08-21T19:42:52;7.97;;;6.20;;
78716;SDS011;68045;50.042;14.432;2023-08-21T19:46:53;11.43;;;6.65;;
78716;SDS011;68045;50.042;14.432;2023-08-21T19:50:55;9.60;;;6.65;;
78716;SDS011;68045;50.042;14.432;2023-08-21T19:54:59;11.30;;;6.22;;
78716;SDS011;68045;50.042;14.432;2023-08-21T19:59:01;8.50;;;6.30;;
78716;SDS011;68045;50.042;14.432;2023-08-21T20:03:02;8.63;;;5.90;;
78716;SDS011;68045;50.042;14.432;2023-08-21T20:07:03;13.30;;;7.60;;
78716;SDS011;68045;50.042;14.432;2023-08-21T20:11:07;10.77;;;6.90;;
78716;SDS011;68045;50.042;14.432;2023-08-21T20:15:09;14.00;;;7.35;;
78716;SDS011;68045;50.042;14.432;2023-08-21T20:19:11;10.68;;;7.40;;
78716;SDS011;68045;50.042;14.432;2023-08-21T20:23:12;9.50;;;6.30;;
78716;SDS011;68045;50.042;14.432;2023-08-21T20:27:12;11.40;;;7.15;;
78716;SDS011;68045;50.042;14.432;2023-08-21T20:31:13;10.75;;;7.55;;
78716;SDS011;68045;50.042;14.432;2023-08-21T20:35:14;9.63;;;7.55;;
78716;SDS011;68045;50.042;14.432;2023-08-21T20:39:15;9.55;;;7.97;;
78716;SDS011;68045;50.042;14.432;2023-08-21T20:43:16;12.52;;;8.02;;
78716;SDS011;68045;50.042;14.432;2023-08-21T20:47:17;12.48;;;8.98;;
78716;SDS011;68045;50.042;14.432;2023-08-21T20:51:18;11.85;;;8.63;;
78716;SDS011;68045;50.042;14.432;2023-08-21T20:55:19;12.15;;;8.15;;
78716;SDS011;68045;50.042;14.432;2023-08-21T20:59:20;10.70;;;8.88;;
78716;SDS011;68045;50.042;14.432;2023-08-21T21:03:21;12.15;;;8.82;;
78716;SDS011;68045;50.042;14.432;2023-08-21T21:07:22;13.45;;;9.10;;
78716;SDS011;68045;50.042;14.432;2023-08-21T21:11:22;12.45;;;9.15;;
78716;SDS011;68045;50.042;14.432;2023-08-21T21:15:23;11.20;;;7.90;;
78716;SDS011;68045;50.042;14.432;2023-08-21T21:19:24;13.95;;;8.60;;
78716;SDS011;68045;50.042;14.432;2023-08-21T21:23:25;11.50;;;8.60;;
78716;SDS011;68045;50.042;14.432;2023-08-21T21:27:26;15.57;;;9.50;;
78716;SDS011;68045;50.042;14.432;2023-08-21T21:31:27;10.07;;;7.85;;
78716;SDS011;68045;50.042;14.432;2023-08-21T21:35:27;12.30;;;9.05;;
78716;SDS011;68045;50.042;14.432;2023-08-21T21:39:28;12.88;;;8.52;;
78716;SDS011;68045;50.042;14.432;2023-08-21T21:43:29;19.35;;;11.65;;
78716;SDS011;68045;50.042;14.432;2023-08-21T21:47:30;14.50;;;9.85;;
78716;SDS011;68045;50.042;14.432;2023-08-21T21:51:31;14.00;;;9.70;;
78716;SDS011;68045;50.042;14.432;2023-08-21T21:55:31;12.73;;;9.02;;
78716;SDS011;68045;50.042;14.432;2023-08-21T21:59:33;11.57;;;8.50;;
78716;SDS011;68045;50.042;14.432;2023-08-21T22:03:34;11.00;;;9.13;;
78716;SDS011;68045;50.042;14.432;2023-08-21T22:07:36;12.18;;;8.43;;
78716;SDS011;68045;50.042;14.432;2023-08-21T22:11:37;11.90;;;8.88;;
78716;SDS011;68045;50.042;14.432;2023-08-21T22:15:38;18.30;;;11.68;;
78716;SDS011;68045;50.042;14.432;2023-08-21T22:19:39;15.80;;;11.10;;
78716;SDS011;68045;50.042;14.432;2023-08-21T22:23:40;15.80;;;10.45;;
78716;SDS011;68045;50.042;14.432;2023-08-21T22:27:41;16.35;;;10.00;;
78716;SDS011;68045;50.042;14.432;2023-08-21T22:31:42;13.30;;;10.18;;
78716;SDS011;68045;50.042;14.432;2023-08-21T22:35:43;13.77;;;10.35;;
78716;SDS011;68045;50.042;14.432;2023-08-21T22:39:44;27.48;;;17.20;;
78716;SDS011;68045;50.042;14.432;2023-08-21T22:43:45;14.50;;;10.73;;
78716;SDS011;68045;50.042;14.432;2023-08-21T22:47:46;12.10;;;10.48;;
78716;SDS011;68045;50.042;14.432;2023-08-21T22:51:46;15.13;;;10.35;;
78716;SDS011;68045;50.042;14.432;2023-08-21T22:55:52;14.25;;;9.25;;
78716;SDS011;68045;50.042;14.432;2023-08-21T22:59:54;15.13;;;9.55;;
78716;SDS011;68045;50.042;14.432;2023-08-21T23:03:55;16.60;;;10.48;;
78716;SDS011;68045;50.042;14.432;2023-08-21T23:07:56;12.43;;;9.10;;
78716;SDS011;68045;50.042;14.432;2023-08-21T23:11:56;12.15;;;9.15;;
78716;SDS011;68045;50.042;14.432;2023-08-21T23:15:57;12.43;;;9.68;;
78716;SDS011;68045;50.042;14.432;2023-08-21T23:19:57;12.07;;;10.02;;
78716;SDS011;68045;50.042;14.432;2023-08-21T23:23:58;15.73;;;9.68;;
78716;SDS011;68045;50.042;14.432;2023-08-21T23:28:00;12.68;;;9.98;;
78716;SDS011;68045;50.042;14.432;2023-08-21T23:32:00;13.88;;;9.23;;
78716;SDS011;68045;50.042;14.432;2023-08-21T23:36:01;14.63;;;10.27;;
78716;SDS011;68045;50.042;14.432;2023-08-21T23:40:02;14.50;;;10.35;;
78716;SDS011;68045;50.042;14.432;2023-08-21T23:44:06;12.85;;;10.02;;
78716;SDS011;68045;50.042;14.432;2023-08-21T23:48:07;17.63;;;12.27;;
78716;SDS011;68045;50.042;14.432;2023-08-21T23:52:08;17.27;;;10.70;;
78716;SDS011;68045;50.042;14.432;2023-08-21T23:56:09;16.50;;;10.88;;
